Latest Coastal Weather Observations for Hogan Island

IDV60701

Issued at 10:25 pm EDT Wednesday 26 November 2014 (issued every 10 minutes, with the page automatically refreshed every 10 minutes)

About coastal observations | Map of coastal stations | Coastal observations for VIC | Marine services | Other Formats
Station Details ID: 200838 Name: HOGAN ISLAND Lat: -39.22 Lon: 146.98 Height: 116.0 m
Data from the previous 72 hours. | See also: Recent months at Hogan Island
Date/Time
EDT
Temp

°C
Wind Pressure Rain
since 9am
mm
Weather Cloud Vis
km
Sea
Height
m
Swell
Dir
 
Speed
knots
Gust
knots
hPa Trend Height
m
Period
s
Dir
26/10:00pm 12.1 WSW 30 33 1021.5 - 0.4 - - - - - - -
26/09:30pm 12.2 WSW 31 35 1021.1 - 0.4 - - - - - - -
26/09:00pm 12.3 WSW 31 34 1020.6 - 0.4 - - - - - - -
26/08:30pm 12.2 WSW 32 37 1020.5 - 0.4 - - - - - - -
26/08:00pm 12.5 WSW 32 37 1020.2 - 0.4 - - - - - - -
26/07:30pm 12.9 WSW 31 36 1020.1 - 0.4 - - - - - - -
26/07:00pm 13.4 WSW 29 35 1019.9 - 0.4 - - - - - - -
26/06:30pm 13.7 WSW 31 35 1019.6 - 0.4 - - - - - - -
26/06:00pm 14.2 W 30 35 1019.4 - 0.4 - - - - - - -
26/05:30pm 14.7 WSW 29 33 1019.5 - 0.4 - - - - - - -
26/05:00pm 15.2 WSW 29 33 1019.4 - 0.4 - - - - - - -
26/04:30pm 15.8 WSW 27 31 1019.4 - 0.4 - - - - - - -
26/04:00pm 15.5 WSW 30 34 1019.4 - 0.4 - - - - - - -
26/03:30pm 16.0 WSW 29 34 1019.3 - 0.4 - - - - - - -
26/03:00pm 15.9 W 31 36 1019.1 - 0.4 - - - - - - -
26/02:30pm 16.0 WSW 29 33 1019.1 - 0.4 - - - - - - -
26/02:00pm 15.6 WSW 29 33 1019.1 - 0.4 - - - - - - -
26/01:30pm 15.8 WSW 30 34 1018.9 - 0.4 - - - - - - -
26/01:00pm 14.3 WSW 25 31 1018.9 - 0.4 - - - - - - -
26/12:30pm 13.4 WSW 27 31 1018.8 - 0.4 - - - - - - -
26/12:00pm 13.8 W 24 28 1018.6 - 0.4 - - - - - - -
26/11:30am 13.0 WSW 27 32 1018.5 - 0.4 - - - - - - -
26/11:11am 13.7 W 33 44 1017.7 - 0.0 - - - - - - -
26/11:00am 15.0 W 32 37 1018.0 - 0.0 - - - - - - -
26/10:30am 14.7 W 33 37 1017.7 - 0.0 - - - - - - -
26/10:00am 14.6 W 30 37 1017.8 - 0.0 - - - - - - -
26/09:30am 14.3 W 32 37 1017.9 - 0.0 - - - - - - -
26/09:00am 14.1 W 32 36 1017.8 - 0.0 - - - - - - -
26/08:30am 13.9 W 32 37 1017.6 - 0.0 - - - - - - -
26/08:00am 13.8 W 33 39 1017.5 - 0.0 - - - - - - -
26/07:30am 13.4 W 32 37 1017.3 - 0.0 - - - - - - -
26/07:00am 13.5 W 32 37 1017.1 - 0.0 - - - - - - -
26/06:30am 13.2 W 31 37 1017.1 - 0.0 - - - - - - -
26/06:00am 13.1 W 33 38 1016.9 - 0.0 - - - - - - -
26/05:30am 13.1 W 29 33 1016.9 - 0.0 - - - - - - -
26/05:00am 12.6 W 30 36 1016.9 - 0.0 - - - - - - -
26/04:30am 12.6 W 32 36 1016.6 - 0.0 - - - - - - -
26/04:00am 12.7 W 30 34 1016.7 - 0.0 - - - - - - -
26/03:30am 12.5 W 30 35 1016.8 - 0.0 - - - - - - -
26/03:00am 12.4 W 29 34 1016.9 - 0.0 - - - - - - -
26/02:30am 12.5 W 28 32 1017.1 - 0.0 - - - - - - -
26/02:00am 12.7 W 28 32 1017.3 - 0.0 - - - - - - -
26/01:30am 13.0 W 28 33 1017.6 - 0.0 - - - - - - -
26/01:00am 13.0 W 27 31 1017.8 - 0.0 - - - - - - -
26/12:30am 13.2 W 31 37 1017.8 - 0.0 - - - - - - -
26/12:00am 12.9 W 30 35 1018.1 - 0.0 - - - - - - -
 
Date/Time
EDT
Temp

°C
Wind Pressure Rain
since 9am
mm
Weather Cloud Vis
km
Sea
Height
m
Swell
Dir
 
Speed
knots
Gust
knots
hPa Trend Height
m
Period
s
Dir
25/11:30pm 12.8 W 32 37 1018.0 - 0.0 - - - - - - -
25/11:00pm 13.0 W 32 38 1018.0 - 0.0 - - - - - - -
25/10:30pm 13.0 W 32 35 1018.2 - 0.0 - - - - - - -
25/10:00pm 13.0 W 33 38 1018.3 - 0.0 - - - - - - -
25/09:30pm 12.9 W 30 34 1018.1 - 0.0 - - - - - - -
25/09:00pm 13.1 W 34 41 1017.7 - 0.0 - - - - - - -
25/08:30pm 12.7 W 35 41 1017.7 - 0.0 - - - - - - -
25/08:00pm 13.1 W 34 40 1017.2 - 0.0 - - - - - - -
25/07:30pm 13.6 W 36 42 1016.9 - 0.0 - - - - - - -
25/07:00pm 13.9 W 36 42 1016.3 - 0.0 - - - - - - -
25/06:30pm 13.4 W 36 40 1016.3 - 0.0 - - - - - - -
25/06:00pm 13.9 W 38 45 1015.6 - 0.0 - - - - - - -
25/05:30pm 14.7 W 37 42 1015.8 - 0.0 - - - - - - -
25/05:00pm 15.1 W 36 42 1015.7 - 0.0 - - - - - - -
25/04:30pm 15.3 W 38 45 1015.7 - 0.0 - - - - - - -
25/04:00pm 15.7 W 34 40 1015.8 - 0.0 - - - - - - -
25/03:30pm 15.6 W 38 43 1015.5 - 0.0 - - - - - - -
25/03:00pm 15.5 W 34 39 1015.5 - 0.0 - - - - - - -
25/02:30pm 13.8 W 39 51 1015.3 - 0.0 - - - - - - -
25/02:27pm 14.7 W 39 51 1015.1 - 0.0 - - - - - - -
25/02:00pm 16.0 W 38 43 1015.3 - 0.0 - - - - - - -
25/01:30pm 14.8 W 37 43 1015.1 - 0.0 - - - - - - -
25/01:16pm 15.2 W 37 48 1014.9 - 0.0 - - - - - - -
25/01:00pm 16.2 W 35 40 1015.0 - 0.0 - - - - - - -
25/12:30pm 15.7 W 35 42 1014.9 - 0.0 - - - - - - -
25/12:00pm 15.4 W 38 43 1014.2 - 0.0 - - - - - - -
25/11:30am 15.1 W 38 45 1013.9 - 0.0 - - - - - - -
25/11:00am 15.0 W 37 42 1013.8 - 0.0 - - - - - - -
25/10:30am 14.8 W 39 45 1013.3 - 0.0 - - - - - - -
25/10:00am 14.6 W 37 43 1013.0 - 0.0 - - - - - - -
25/09:30am 13.8 W 36 42 1013.0 - 0.0 - - - - - - -
25/09:00am 14.0 W 36 41 1012.5 - 24.4 - - - - - - -
25/08:30am 12.6 W 38 45 1012.0 - 24.4 - - - - - - -
25/08:00am 13.0 W 41 48 1011.3 - 24.4 - - - - - - -
25/07:30am 12.6 W 37 44 1010.9 - 24.4 - - - - - - -
25/07:00am 13.2 W 40 47 1010.4 - 24.4 - - - - - - -
25/06:30am 12.6 W 39 45 1010.0 - 24.4 - - - - - - -
25/06:00am 12.7 W 41 48 1009.3 - 24.4 - - - - - - -
25/05:36am 12.3 W 39 49 1009.0 - 24.4 - - - - - - -
25/05:30am 12.6 W 38 46 1009.1 - 24.4 - - - - - - -
25/05:00am 12.4 W 43 49 1008.7 - 24.4 - - - - - - -
25/04:30am 12.9 W 40 47 1008.6 - 24.4 - - - - - - -
25/04:00am 12.6 W 38 44 1008.7 - 24.4 - - - - - - -
25/03:30am 12.6 W 40 46 1008.3 - 24.4 - - - - - - -
25/03:00am 12.6 W 38 45 1008.5 - 24.4 - - - - - - -
25/02:30am 12.6 W 39 44 1008.6 - 24.4 - - - - - - -
25/02:00am 12.6 W 37 43 1008.7 - 24.4 - - - - - - -
25/01:30am 12.6 W 35 40 1009.1 - 24.4 - - - - - - -
25/01:00am 12.8 W 36 41 1009.1 - 24.4 - - - - - - -
25/12:30am 12.8 W 36 42 1008.8 - 24.4 - - - - - - -
25/12:00am 12.9 W 34 40 1009.0 - 24.4 - - - - - - -
 
Date/Time
EDT
Temp

°C
Wind Pressure Rain
since 9am
mm
Weather Cloud Vis
km
Sea
Height
m
Swell
Dir
 
Speed
knots
Gust
knots
hPa Trend Height
m
Period
s
Dir
24/11:30pm 12.8 W 35 39 1009.0 - 24.4 - - - - - - -
24/11:00pm 12.8 W 36 41 1008.8 - 24.4 - - - - - - -
24/10:30pm 12.5 WSW 31 36 1009.0 - 24.4 - - - - - - -
24/10:00pm 13.0 WSW 33 39 1008.8 - 24.2 - - - - - - -
24/09:30pm 13.1 W 34 39 1008.2 - 24.2 - - - - - - -
24/09:00pm 13.2 W 35 38 1007.5 - 24.2 - - - - - - -
24/08:55pm 13.2 W 35 38 1007.5 - 24.2 - - - - - - -
24/08:30pm 13.3 WSW 24 31 1007.9 - 24.2 - - - - - - -
24/08:00pm 13.4 WSW 26 34 1007.7 - 24.2 - - - - - - -
24/07:30pm 13.8 WSW 30 34 1006.6 - 24.2 - - - - - - -
24/07:00pm 13.7 WSW 26 31 1006.5 - 24.2 - - - - - - -
24/06:30pm 14.3 W 25 29 1005.7 - 24.2 - - - - - - -
24/06:00pm 14.8 WNW 24 29 1005.0 - 24.2 - - - - - - -
24/05:49pm 14.8 WNW 20 27 1005.3 - 24.2 - - - - - - -
24/05:32pm 14.8 NNW 15 25 1005.6 - 22.0 - - - - - - -
24/05:30pm 14.7 NNW 13 19 1005.6 - 22.0 - - - - - - -
24/05:00pm 14.8 N 11 13 1005.1 - 18.2 - - - - - - -
24/04:30pm 15.2 NNW 13 16 1005.0 - 17.8 - - - - - - -
24/04:11pm 15.2 NW 18 28 1004.9 - 16.6 - - - - - - -
24/04:00pm 15.5 NW 18 26 1004.6 - 15.6 - - - - - - -
24/03:56pm 15.5 NW 16 26 1004.6 - 14.0 - - - - - - -
24/03:54pm 15.5 NNW 15 24 1004.9 - 13.4 - - - - - - -
24/03:30pm 14.3 NNE 9 13 1006.3 - 5.6 - - - - - - -
24/03:00pm 14.6 ENE 11 15 1005.9 - 3.6 - - - - - - -
24/02:30pm 14.2 ENE 12 15 1006.4 - 2.4 - - - - - - -
24/02:00pm 14.0 NE 13 16 1007.1 - 2.2 - - - - - - -
24/01:30pm 14.6 NE 11 13 1008.7 - 2.0 - - - - - - -
24/01:00pm 14.0 ENE 12 14 1008.9 - 1.8 - - - - - - -
24/12:30pm 14.0 E 12 13 1009.6 - 1.6 - - - - - - -
24/12:00pm 14.3 SE 10 11 1009.8 - 1.4 - - - - - - -
24/11:30am 14.5 SE 9 11 1010.0 - 0.4 - - - - - - -
24/11:00am 14.8 SSE 7 9 1010.2 - 0.2 - - - - - - -
24/10:30am 15.1 SW 6 10 1011.4 - 0.0 - - - - - - -
24/10:00am 15.2 ESE 4 15 1010.5 - 0.0 - - - - - - -
24/09:30am 15.9 E 16 18 1008.8 - 0.0 - - - - - - -
24/09:00am 15.1 E 13 16 1009.3 - 0.0 - - - - - - -
24/08:30am 15.4 E 15 18 1009.2 - 0.0 - - - - - - -
24/08:00am 15.7 E 14 16 1009.7 - 0.0 - - - - - - -
24/07:30am 14.6 ENE 11 13 1010.3 - 0.0 - - - - - - -
24/07:00am 14.2 ENE 13 16 1009.9 - 0.0 - - - - - - -
24/06:30am 14.2 ENE 15 17 1009.5 - 0.0 - - - - - - -
24/06:00am 13.6 ENE 11 13 1009.7 - 0.0 - - - - - - -
24/05:30am 13.7 ENE 11 12 1010.1 - 0.0 - - - - - - -
24/05:00am 13.6 NE 10 12 1010.1 - 0.0 - - - - - - -
24/04:30am 13.4 NE 9 10 1011.0 - 0.0 - - - - - - -
24/04:00am 13.4 NE 9 11 1010.9 - 0.0 - - - - - - -
24/03:30am 13.5 NNE 11 13 1011.3 - 0.0 - - - - - - -
24/03:00am 13.5 NNE 12 13 1011.5 - 0.0 - - - - - - -
24/02:30am 13.5 N 12 14 1012.7 - 0.0 - - - - - - -
24/02:00am 13.3 N 12 14 1012.9 - 0.0 - - - - - - -
24/01:30am 13.3 N 10 11 1012.7 - 0.0 - - - - - - -
24/01:00am 13.5 N 10 12 1013.4 - 0.0 - - - - - - -
24/12:30am 13.6 N 10 12 1013.6 - 0.0 - - - - - - -
24/12:00am 13.3 N 12 15 1013.9 - 0.0 - - - - - - -
 
Date/Time
EDT
Temp

°C
Wind Pressure Rain
since 9am
mm
Weather Cloud Vis
km
Sea
Height
m
Swell
Dir
 
Speed
knots
Gust
knots
hPa Trend Height
m
Period
s
Dir
23/11:30pm 13.4 N 12 15 1014.3 - 0.0 - - - - - - -
23/11:00pm 13.4 N 11 13 1014.7 - 0.0 - - - - - - -
23/10:30pm 13.5 N 11 13 1014.9 - 0.0 - - - - - - -

Other Formats:

Comma delimited format used in spreadsheet applications
http://www.bom.gov.au/fwo/IDV60701/IDV60701.94949.axf

JavaScript Object Notation format (JSON) in row-major order
http://www.bom.gov.au/fwo/IDV60701/IDV60701.94949.json